createdAt,value
2022-11-23T03:31:50.972Z,94825.63
2022-11-23T03:32:58.151Z,94829.91
2022-11-23T03:34:00.362Z,94819.72
2022-11-23T03:35:14.495Z,94824.91
2022-11-23T03:36:18.894Z,94822.38
2022-11-23T03:37:24.647Z,94820.72
2022-11-23T03:38:38.504Z,94817.28
2022-11-23T03:39:47.713Z,94815.72
2022-11-23T03:40:52.391Z,94816.56
2022-11-23T03:42:02.104Z,94819.94
2022-11-23T03:43:06.937Z,94825.03
2022-11-23T03:44:16.348Z,94815.72
2022-11-23T03:45:23.886Z,94817.47
2022-11-23T03:46:31.062Z,94814.13
2022-11-23T03:47:43.407Z,94816.66
2022-11-23T03:48:48.427Z,94819.25
2022-11-23T03:49:56.179Z,94820.94
2022-11-23T03:51:06.153Z,94826.81
2022-11-23T03:52:14.634Z,94822.50
2022-11-23T03:53:23.445Z,94819.91
2022-11-23T03:54:32.652Z,94814.63
2022-11-23T03:55:41.200Z,94810.31
2022-11-23T03:56:46.479Z,94811.97
2022-11-23T03:57:51.754Z,94813.56
2022-11-23T03:59:00.708Z,94816.97
2022-11-23T04:00:13.025Z,94813.47
2022-11-23T04:01:21.519Z,94814.31
2022-11-23T04:02:36.078Z,94817.63
2022-11-23T04:03:47.347Z,94818.44
2022-11-23T04:04:57.761Z,94814.22
2022-11-23T04:06:09.071Z,94815.03
2022-11-23T04:07:16.092Z,94810.72
2022-11-23T04:08:18.454Z,94818.28
2022-11-23T04:09:23.335Z,94814.84
2022-11-23T04:10:28.383Z,94813.88
2022-11-23T04:11:33.280Z,94815.53
2022-11-23T04:12:39.226Z,94826.53
2022-11-23T04:13:53.390Z,94817.97
2022-11-23T04:15:06.354Z,94822.34
2022-11-23T04:16:11.754Z,94819.78
2022-11-23T04:17:26.507Z,94813.81
2022-11-23T04:18:33.656Z,94818.09
2022-11-23T04:19:43.003Z,94819.78
2022-11-23T04:20:49.937Z,94814.66
2022-11-23T04:21:55.255Z,94818.09
2022-11-23T04:23:00.402Z,94818.09
2022-11-23T04:24:02.741Z,94814.72
2022-11-23T04:25:10.528Z,94813.09
2022-11-23T04:26:19.469Z,94815.72
2022-11-23T04:27:24.486Z,94818.31
2022-11-23T04:28:29.109Z,94808.22
2022-11-23T04:29:39.649Z,94820.19
2022-11-23T04:30:53.175Z,94812.53
2022-11-23T04:32:01.424Z,94816.88
2022-11-23T04:33:11.741Z,94816.88
2022-11-23T04:34:25.385Z,94813.53
2022-11-23T04:35:36.389Z,94812.72
2022-11-23T04:36:42.763Z,94816.97
2022-11-23T04:37:48.018Z,94811.84
2022-11-23T04:38:53.107Z,94815.19
2022-11-23T04:40:05.689Z,94818.53
2022-11-23T04:41:10.552Z,94817.63
2022-11-23T04:42:14.301Z,94816.75
2022-11-23T04:43:24.908Z,94811.59
2022-11-23T04:44:34.340Z,94817.47
2022-11-23T04:45:41.622Z,94819.88
2022-11-23T04:46:45.844Z,94810.44
2022-11-23T04:47:50.952Z,94812.03
2022-11-23T04:49:03.614Z,94811.91
2022-11-23T04:50:09.870Z,94808.44
2022-11-23T04:51:19.340Z,94810.88
2022-11-23T04:52:28.182Z,94801.44
2022-11-23T04:53:33.543Z,94803.91
2022-11-23T04:54:36.037Z,94807.22
2022-11-23T04:55:46.461Z,94807.13
2022-11-23T04:56:51.362Z,94804.44
2022-11-23T04:57:58.409Z,94807.78
2022-11-23T04:59:03.863Z,94809.41
2022-11-23T05:00:16.274Z,94804.22
2022-11-23T05:01:29.845Z,94812.69
2022-11-23T05:02:37.071Z,94801.50
2022-11-23T05:03:49.365Z,94813.34
2022-11-23T05:04:54.267Z,94798.72
2022-11-23T05:06:06.792Z,94802.91
2022-11-23T05:07:16.210Z,94811.34
2022-11-23T05:08:21.377Z,94806.13
2022-11-23T05:09:25.937Z,94810.31
2022-11-23T05:10:30.745Z,94799.22
2022-11-23T05:11:33.066Z,94799.97
2022-11-23T05:12:38.561Z,94802.41
2022-11-23T05:13:55.223Z,94799.81
2022-11-23T05:15:05.910Z,94803.09
2022-11-23T05:16:10.927Z,94800.41
2022-11-23T05:17:18.792Z,94797.00
2022-11-23T05:18:29.716Z,94791.75
2022-11-23T05:19:34.394Z,94796.75
2022-11-23T05:20:39.452Z,94788.19
2022-11-23T05:21:43.990Z,94788.13
2022-11-23T05:22:53.214Z,94782.94
2022-11-23T05:23:58.140Z,94786.28
2022-11-23T05:25:03.725Z,94785.38
2022-11-23T05:26:09.083Z,94785.34
2022-11-23T05:27:13.305Z,94788.78
2022-11-23T05:29:47.063Z,94790.44
2022-11-23T05:30:53.325Z,94789.41
2022-11-23T05:31:58.211Z,94786.09
2022-11-23T05:33:07.007Z,94780.09
2022-11-23T05:34:21.313Z,94790.41
2022-11-23T05:35:26.427Z,94784.38
2022-11-23T05:36:40.827Z,94789.50
2022-11-23T05:37:48.440Z,94784.38
2022-11-23T05:38:59.478Z,94782.72
2022-11-23T05:40:01.998Z,94781.88
2022-11-23T05:41:06.919Z,94779.28
2022-11-23T05:42:12.619Z,94779.28
2022-11-23T05:43:17.793Z,94782.72
2022-11-23T05:44:19.919Z,94781.81
2022-11-23T05:45:32.986Z,94775.06
2022-11-23T05:46:40.628Z,94769.94
2022-11-23T05:47:45.340Z,94771.72
2022-11-23T05:49:00.917Z,94773.38
2022-11-23T05:50:06.555Z,94769.09
2022-11-23T05:51:16.485Z,94777.66
2022-11-23T05:52:21.519Z,94768.25
2022-11-23T05:53:29.376Z,94768.34
2022-11-23T05:54:36.871Z,94770.03
2022-11-23T05:55:41.466Z,94770.13
2022-11-23T05:56:51.026Z,94773.56
2022-11-23T05:57:55.811Z,94773.66
2022-11-23T05:59:08.087Z,94781.41
2022-11-23T06:00:34.752Z,94778.97
2022-11-23T06:01:42.709Z,94780.88
2022-11-23T06:02:47.702Z,94786.88
2022-11-23T06:03:55.208Z,94776.75
2022-11-23T06:05:00.837Z,94783.66
2022-11-23T06:06:08.579Z,94783.66
2022-11-23T06:07:21.635Z,94790.44
2022-11-23T06:08:27.858Z,94785.44
2022-11-23T06:09:45.994Z,94789.72
2022-11-23T06:10:58.788Z,94785.56
2022-11-23T06:12:12.062Z,94783.78
2022-11-23T06:13:18.293Z,94789.00
2022-11-23T06:14:23.111Z,94786.50
2022-11-23T06:15:31.195Z,94781.50
2022-11-23T06:16:36.264Z,94780.72
2022-11-23T06:17:42.148Z,94784.19
2022-11-23T06:18:44.400Z,94787.56
2022-11-23T06:19:49.055Z,94779.94
2022-11-23T06:20:51.298Z,94787.56
2022-11-23T06:21:59.073Z,94787.56
2022-11-23T06:23:01.528Z,94797.06
2022-11-23T06:24:06.500Z,94794.44
2022-11-23T06:25:11.399Z,94799.63
2022-11-23T06:26:19.011Z,94792.91
2022-11-23T06:27:23.778Z,94788.75
2022-11-23T06:28:38.425Z,94797.31
2022-11-23T06:29:43.234Z,94787.16
2022-11-23T06:30:47.296Z,94793.25
2022-11-23T06:31:51.990Z,94791.69
2022-11-23T06:32:54.090Z,94787.59
2022-11-23T06:34:01.859Z,94795.38
2022-11-23T06:35:04.475Z,94797.97
2022-11-23T06:36:12.385Z,94792.13
2022-11-23T06:37:17.182Z,94795.75
2022-11-23T06:38:28.239Z,94795.00
2022-11-23T06:39:32.826Z,94802.00
2022-11-23T06:40:40.369Z,94797.97
2022-11-23T06:41:42.482Z,94798.00
2022-11-23T06:42:47.764Z,94794.75
2022-11-23T06:43:52.041Z,94804.25
2022-11-23T06:44:56.771Z,94796.75
2022-11-23T06:46:02.048Z,94802.75
2022-11-23T06:47:07.030Z,94803.69
2022-11-23T06:48:11.946Z,94802.97
2022-11-23T06:49:17.251Z,94805.63
2022-11-23T06:50:19.492Z,94809.06
2022-11-23T06:51:24.174Z,94806.56
2022-11-23T06:52:27.908Z,94809.16
2022-11-23T06:53:34.505Z,94816.72
2022-11-23T06:54:36.613Z,94809.16
2022-11-23T06:55:47.390Z,94811.78
2022-11-23T06:56:49.420Z,94812.66
2022-11-23T06:57:56.843Z,94818.69
2022-11-23T06:59:01.607Z,94817.91
2022-11-23T07:00:08.087Z,94820.47
2022-11-23T07:01:13.297Z,94813.75
2022-11-23T07:02:15.836Z,94824.88
2022-11-23T07:03:30.809Z,94819.88
2022-11-23T07:04:33.144Z,94820.00
2022-11-23T07:05:37.828Z,94815.81
2022-11-23T07:06:47.345Z,94820.97
2022-11-23T07:07:51.323Z,94827.78
2022-11-23T07:08:57.815Z,94824.50
2022-11-23T07:10:06.829Z,94831.38
2022-11-23T07:11:17.637Z,94828.81
2022-11-23T07:12:22.352Z,94829.72
2022-11-23T07:13:27.178Z,94839.13
2022-11-23T07:14:30.922Z,94829.88
2022-11-23T07:15:36.122Z,94835.88
2022-11-23T07:16:38.293Z,94837.53
2022-11-23T07:17:44.549Z,94833.38
2022-11-23T07:18:46.644Z,94836.72
2022-11-23T07:19:51.486Z,94838.44
2022-11-23T07:20:53.963Z,94842.75
2022-11-23T07:21:58.621Z,94837.66
2022-11-23T07:23:01.697Z,94839.34
2022-11-23T07:24:06.822Z,94836.81
2022-11-23T07:25:14.517Z,94837.75
2022-11-23T07:26:21.982Z,94841.09
2022-11-23T07:27:25.900Z,94841.91
2022-11-23T07:28:31.483Z,94841.13
2022-11-23T07:29:33.873Z,94847.09
2022-11-23T07:30:52.908Z,94841.09
2022-11-23T07:31:55.041Z,94841.09
2022-11-23T07:33:02.727Z,94841.91
2022-11-23T07:34:05.304Z,94845.25
2022-11-23T07:35:11.483Z,94841.78
2022-11-23T07:36:26.790Z,94842.53
2022-11-23T07:37:28.984Z,94830.53
2022-11-23T07:38:35.213Z,94833.81
2022-11-23T07:39:56.177Z,94839.72
2022-11-23T07:41:03.529Z,94831.13
2022-11-23T07:42:31.494Z,94836.13
2022-11-23T07:43:33.836Z,94841.13
2022-11-23T07:44:36.000Z,94837.69
2022-11-23T07:45:43.730Z,94842.69
2022-11-23T07:46:48.402Z,94840.91
2022-11-23T07:48:00.829Z,94833.16
2022-11-23T07:49:05.734Z,94838.16
2022-11-23T07:50:09.829Z,94834.69
2022-11-23T07:51:16.660Z,94833.69
2022-11-23T07:52:23.703Z,94831.91
2022-11-23T07:53:28.427Z,94836.91
2022-11-23T07:54:33.276Z,94835.94
2022-11-23T07:55:38.153Z,94835.81
2022-11-23T07:56:42.895Z,94839.06
2022-11-23T07:57:50.291Z,94833.84
2022-11-23T07:58:56.968Z,94838.75
2022-11-23T07:59:59.225Z,94841.06
2022-11-23T08:01:04.235Z,94836.72
2022-11-23T08:02:13.094Z,94836.53
2022-11-23T08:03:27.890Z,94837.94
2022-11-23T08:04:34.332Z,94838.56
2022-11-23T08:05:40.905Z,94830.66
2022-11-23T08:06:47.066Z,94828.78
2022-11-23T08:07:51.922Z,94832.78
2022-11-23T08:09:01.731Z,94828.22
2022-11-23T08:10:09.201Z,94828.50
2022-11-23T08:11:18.537Z,94824.34
2022-11-23T08:12:24.179Z,94822.88
2022-11-23T08:13:34.870Z,94819.78
2022-11-23T08:14:46.714Z,94821.50
2022-11-23T08:15:55.235Z,94825.91
2022-11-23T08:16:58.208Z,94822.59
2022-11-23T08:18:08.585Z,94820.38
2022-11-23T08:19:17.370Z,94817.56
2022-11-23T08:20:23.330Z,94819.44
2022-11-23T08:21:45.652Z,94821.84
2022-11-23T08:22:52.942Z,94820.56
2022-11-23T08:23:57.958Z,94815.81
2022-11-23T08:25:02.753Z,94817.72
2022-11-23T08:26:14.735Z,94820.69
2022-11-23T08:27:21.096Z,94816.28
2022-11-23T08:28:27.983Z,94817.34
2022-11-23T08:29:35.569Z,94816.31
2022-11-23T08:30:44.796Z,94812.41
2022-11-23T08:31:51.772Z,94811.00
2022-11-23T08:33:01.080Z,94811.06
2022-11-23T08:34:08.176Z,94808.78
2022-11-23T08:35:14.443Z,94805.34
2022-11-23T08:36:18.972Z,94797.69
2022-11-23T08:37:30.765Z,94801.66
2022-11-23T08:38:44.641Z,94802.16
2022-11-23T08:39:51.628Z,94795.38
2022-11-23T08:40:58.709Z,94788.75
2022-11-23T08:42:03.502Z,94789.72
2022-11-23T08:43:10.183Z,94792.13
2022-11-23T08:44:18.172Z,94787.88
2022-11-23T08:45:27.042Z,94784.56
2022-11-23T08:46:32.257Z,94778.66
2022-11-23T08:47:37.295Z,94785.81
2022-11-23T08:48:43.816Z,94780.41
2022-11-23T08:49:52.241Z,94786.78
2022-11-23T08:50:57.859Z,94779.28
2022-11-23T08:52:02.992Z,94786.63
2022-11-23T08:53:14.361Z,94780.00
2022-11-23T08:54:23.455Z,94786.63
2022-11-23T08:55:29.389Z,94785.03
2022-11-23T08:56:35.621Z,94784.91
2022-11-23T08:57:41.889Z,94787.50
2022-11-23T08:58:53.517Z,94791.28
2022-11-23T08:59:58.056Z,94785.88
2022-11-23T09:01:11.577Z,94776.56
2022-11-23T09:02:20.312Z,94775.81
2022-11-23T09:03:29.464Z,94779.19
2022-11-23T09:04:34.544Z,94772.63
2022-11-23T09:05:44.628Z,94777.06
2022-11-23T09:06:52.815Z,94783.41
2022-11-23T09:08:04.148Z,94774.28
2022-11-23T09:09:11.993Z,94773.81
2022-11-23T09:10:21.080Z,94771.50
2022-11-23T09:11:26.433Z,94776.63
2022-11-23T09:12:32.145Z,94774.47
2022-11-23T09:13:41.626Z,94776.66
2022-11-23T09:14:57.582Z,94773.03
2022-11-23T09:16:08.210Z,94772.22
2022-11-23T09:17:27.482Z,94770.41
2022-11-23T09:18:39.698Z,94775.56
2022-11-23T09:19:49.025Z,94768.13
2022-11-23T09:20:57.490Z,94773.03
2022-11-23T09:22:02.295Z,94771.31
2022-11-23T09:23:16.341Z,94771.31
2022-11-23T09:24:21.354Z,94770.97
2022-11-23T09:25:29.552Z,94773.03
2022-11-23T09:26:45.123Z,94788.75
2022-11-23T09:27:49.943Z,94801.06
2022-11-23T09:28:54.942Z,94798.84
2022-11-23T09:29:57.068Z,94797.41
2022-11-23T09:31:05.290Z,94790.44
2022-11-23T09:32:13.224Z,94780.38
2022-11-23T09:33:21.035Z,94781.88
2022-11-23T09:34:30.086Z,94788.56
2022-11-23T09:35:38.152Z,94788.50
2022-11-23T09:36:45.543Z,94804.38
2022-11-23T09:37:50.596Z,94802.94
2022-11-23T09:38:57.043Z,94796.66
2022-11-23T09:40:08.290Z,94790.84
2022-11-23T09:41:37.125Z,94789.53
2022-11-23T09:42:56.751Z,94787.97
2022-11-23T09:44:07.657Z,94779.53
2022-11-23T09:45:27.371Z,94776.56
2022-11-23T09:46:46.268Z,94774.66
2022-11-23T09:48:08.516Z,94774.66
2022-11-23T09:49:18.805Z,94778.78
2022-11-23T09:50:27.800Z,94791.84
2022-11-23T09:51:35.307Z,94796.50
2022-11-23T09:52:41.045Z,94803.94
2022-11-23T09:53:53.053Z,94810.13
2022-11-23T09:55:03.512Z,94808.88
2022-11-23T09:56:17.477Z,94809.97
2022-11-23T09:57:26.959Z,94796.13
2022-11-23T09:58:38.278Z,94817.25
2022-11-23T09:59:50.395Z,94811.34
2022-11-23T10:01:03.967Z,94814.84
2022-11-23T10:02:08.807Z,94806.38
2022-11-23T10:03:20.134Z,94816.16
2022-11-23T10:04:25.699Z,94811.78
2022-11-23T10:05:36.007Z,94805.34
2022-11-23T10:06:47.257Z,94801.81
2022-11-23T10:08:05.306Z,94786.22
2022-11-23T10:09:28.021Z,94784.19
2022-11-23T10:10:44.708Z,94787.03
2022-11-23T10:12:12.164Z,94777.84
2022-11-23T10:13:38.154Z,94771.94
2022-11-23T10:14:56.408Z,94776.28
2022-11-23T10:16:27.822Z,94767.97
2022-11-23T10:17:54.413Z,94784.22
2022-11-23T10:19:14.630Z,94786.16
2022-11-23T10:20:33.852Z,94775.59
2022-11-23T10:21:47.716Z,94781.03
2022-11-23T10:23:00.547Z,94764.09
2022-11-23T10:24:19.373Z,94771.06
2022-11-23T10:25:26.127Z,94779.59
2022-11-23T10:26:37.297Z,94772.34
2022-11-23T10:27:43.938Z,94759.50
2022-11-23T10:28:53.806Z,94776.59
2022-11-23T10:30:03.633Z,94772.06
2022-11-23T10:31:17.591Z,94786.00
2022-11-23T10:32:35.798Z,94794.91
2022-11-23T10:33:52.582Z,94794.88
2022-11-23T10:35:08.751Z,94793.84
2022-11-23T10:36:16.437Z,94786.16
2022-11-23T10:37:20.366Z,94795.13
2022-11-23T10:38:30.539Z,94796.81
2022-11-23T10:39:35.705Z,94803.81
2022-11-23T10:40:47.358Z,94787.66
2022-11-23T10:41:55.464Z,94802.00
2022-11-23T10:43:12.097Z,94799.22
2022-11-23T10:44:33.764Z,94800.25
2022-11-23T10:45:39.289Z,94783.53
2022-11-23T10:46:50.382Z,94770.53
2022-11-23T10:48:03.989Z,94775.94
2022-11-23T10:49:30.839Z,94770.28
2022-11-23T10:50:44.069Z,94771.25
2022-11-23T10:52:07.365Z,94776.38
2022-11-23T10:53:35.899Z,94770.16
2022-11-23T10:54:57.611Z,94766.44
2022-11-23T10:56:30.654Z,94769.44
2022-11-23T10:57:41.499Z,94760.03
2022-11-23T10:58:47.397Z,94754.13
2022-11-23T11:00:13.555Z,94754.31
2022-11-23T11:01:26.489Z,94759.09
2022-11-23T11:03:01.142Z,94761.78
2022-11-23T11:04:39.851Z,94759.50
2022-11-23T11:06:12.348Z,94749.25
2022-11-23T11:07:38.860Z,94745.00
2022-11-23T11:08:53.976Z,94755.19
2022-11-23T11:09:57.850Z,94748.09
2022-11-23T11:11:05.023Z,94763.91
2022-11-23T11:12:19.346Z,94771.34
2022-11-23T11:13:30.069Z,94772.06
2022-11-23T11:14:43.081Z,94778.41
2022-11-23T11:15:55.090Z,94778.00
2022-11-23T11:17:01.049Z,94768.63
2022-11-23T11:18:03.149Z,94763.34
2022-11-23T11:19:25.685Z,94763.69
2022-11-23T11:20:33.662Z,94767.44
2022-11-23T11:21:44.679Z,94759.84
2022-11-23T11:22:49.735Z,94748.59
2022-11-23T11:23:56.801Z,94739.78
2022-11-23T11:24:58.954Z,94734.53
2022-11-23T11:26:17.208Z,94733.75
2022-11-23T11:27:25.876Z,94735.81
2022-11-23T11:28:38.181Z,94734.75
2022-11-23T11:29:50.488Z,94740.81
2022-11-23T11:31:07.318Z,94734.63
2022-11-23T11:32:23.745Z,94732.88
2022-11-23T11:33:36.329Z,94736.03
2022-11-23T11:34:50.677Z,94715.19
2022-11-23T11:35:58.837Z,94726.25
2022-11-23T11:37:14.925Z,94726.97
2022-11-23T11:38:25.671Z,94733.00
2022-11-23T11:39:35.385Z,94726.41
2022-11-23T11:40:44.503Z,94731.91
2022-11-23T11:41:52.783Z,94727.97
2022-11-23T11:43:02.546Z,94737.00
2022-11-23T11:44:12.553Z,94732.34
2022-11-23T11:45:22.166Z,94727.38
2022-11-23T11:46:32.457Z,94725.94
2022-11-23T11:47:41.625Z,94729.56
2022-11-23T11:48:49.574Z,94730.41
2022-11-23T11:49:59.377Z,94723.06
2022-11-23T11:51:06.563Z,94724.50
2022-11-23T11:52:19.304Z,94725.41
2022-11-23T11:53:25.408Z,94726.38
2022-11-23T11:54:37.383Z,94731.16
2022-11-23T11:55:53.244Z,94729.16
2022-11-23T11:57:03.514Z,94732.56
2022-11-23T11:58:13.838Z,94741.72
2022-11-23T11:59:25.725Z,94731.34
2022-11-23T12:00:33.024Z,94741.97
2022-11-23T12:01:38.617Z,94734.03
2022-11-23T12:02:52.955Z,94725.78
2022-11-23T12:04:03.130Z,94728.22
2022-11-23T12:05:19.200Z,94723.19
2022-11-23T12:06:27.137Z,94722.28
2022-11-23T12:07:38.035Z,94724.25
2022-11-23T12:08:52.837Z,94737.22
2022-11-23T12:10:03.751Z,94732.41
2022-11-23T12:11:08.595Z,94725.34
2022-11-23T12:12:19.415Z,94723.81
2022-11-23T12:13:26.635Z,94711.81
2022-11-23T12:14:31.627Z,94707.34
2022-11-23T12:15:49.561Z,94716.56
2022-11-23T12:17:31.527Z,94722.59
2022-11-23T12:18:58.480Z,94712.19
2022-11-23T12:20:08.773Z,94708.50
2022-11-23T12:21:28.642Z,94719.72
2022-11-23T12:22:50.857Z,94723.56
2022-11-23T12:24:05.307Z,94711.72
2022-11-23T12:25:26.203Z,94718.78
2022-11-23T12:26:39.071Z,94712.34
2022-11-23T12:27:52.628Z,94709.50
2022-11-23T12:29:12.118Z,94709.44
2022-11-23T12:30:25.916Z,94708.94
2022-11-23T12:31:43.312Z,94699.38
2022-11-23T12:33:07.205Z,94704.41
2022-11-23T12:34:26.749Z,94701.59
2022-11-23T12:35:49.055Z,94714.31
2022-11-23T12:37:15.880Z,94713.63
2022-11-23T12:38:40.686Z,94708.69
2022-11-23T12:40:17.009Z,94706.78
2022-11-23T12:41:27.055Z,94711.03
2022-11-23T12:42:41.754Z,94712.22
2022-11-23T12:44:00.234Z,94701.59
2022-11-23T12:45:31.622Z,94700.66
2022-11-23T12:46:43.503Z,94705.88
2022-11-23T12:47:56.468Z,94703.34
2022-11-23T12:49:18.463Z,94699.69
2022-11-23T12:50:21.268Z,94705.53
2022-11-23T12:51:39.344Z,94697.34
2022-11-23T12:53:00.913Z,94706.78
2022-11-23T12:54:25.500Z,94701.84
2022-11-23T12:55:38.972Z,94701.81
2022-11-23T12:57:07.368Z,94693.44
2022-11-23T12:58:20.722Z,94691.59
2022-11-23T12:59:26.923Z,94686.50
2022-11-23T13:00:37.378Z,94688.97
2022-11-23T13:01:43.094Z,94687.19
2022-11-23T13:03:23.228Z,94688.56
2022-11-23T13:05:07.146Z,94685.94
2022-11-23T13:06:50.002Z,94683.59
2022-11-23T13:08:27.867Z,94679.19
2022-11-23T13:09:46.973Z,94690.97
2022-11-23T13:11:04.499Z,94697.81
2022-11-23T13:12:38.875Z,94699.34
2022-11-23T13:13:59.359Z,94703.88
2022-11-23T13:15:22.242Z,94692.41
2022-11-23T13:17:07.257Z,94686.84
2022-11-23T13:18:21.587Z,94687.81
2022-11-23T13:19:50.812Z,94685.63
2022-11-23T13:21:12.279Z,94689.53
2022-11-23T13:22:21.201Z,94689.91
2022-11-23T13:23:28.160Z,94685.19
2022-11-23T13:24:32.925Z,94674.19
2022-11-23T13:25:40.532Z,94677.13
2022-11-23T13:26:42.634Z,94677.41
2022-11-23T13:27:58.517Z,94680.34
2022-11-23T13:29:23.519Z,94677.28
2022-11-23T13:30:59.238Z,94671.53
2022-11-23T13:32:48.380Z,94679.97
2022-11-23T13:33:55.336Z,94682.81
2022-11-23T13:34:57.572Z,94682.34
2022-11-23T13:36:09.494Z,94685.22
2022-11-23T13:37:15.999Z,94696.16
2022-11-23T13:38:39.915Z,94674.44
2022-11-23T13:40:04.218Z,94662.41
2022-11-23T13:41:38.760Z,94664.41
2022-11-23T13:42:46.190Z,94647.59
2022-11-23T13:43:48.283Z,94661.75
2022-11-23T13:45:30.516Z,94648.78
2022-11-23T13:46:37.879Z,94666.88
2022-11-23T13:47:43.995Z,94661.38
2022-11-23T13:48:58.172Z,94652.44
2022-11-23T13:50:12.672Z,94656.78
2022-11-23T13:51:26.881Z,94648.56
2022-11-23T13:52:37.079Z,94648.34
2022-11-23T13:53:41.248Z,94640.78
2022-11-23T13:54:57.825Z,94638.16
2022-11-23T13:56:27.363Z,94631.59
2022-11-23T13:57:30.155Z,94634.50
2022-11-23T13:58:53.758Z,94624.13
2022-11-23T14:00:36.828Z,94613.00
2022-11-23T14:02:25.595Z,94629.38
2022-11-23T14:03:50.098Z,94643.28
2022-11-23T14:04:54.860Z,94643.38
2022-11-23T14:06:01.450Z,94634.06
2022-11-23T14:07:09.027Z,94633.81
2022-11-23T14:08:13.008Z,94628.03
2022-11-23T14:09:25.042Z,94633.94
2022-11-23T14:10:34.473Z,94636.22
2022-11-23T14:11:48.599Z,94632.44
2022-11-23T14:12:59.633Z,94644.66
2022-11-23T14:14:16.647Z,94634.84
2022-11-23T14:15:24.304Z,94634.09
2022-11-23T14:16:55.929Z,94643.53
2022-11-23T14:18:36.647Z,94635.91
2022-11-23T14:19:55.985Z,94652.88
2022-11-23T14:21:17.064Z,94651.94
2022-11-23T14:22:33.494Z,94653.81
2022-11-23T14:24:05.558Z,94645.09
2022-11-23T14:25:30.612Z,94637.50
2022-11-23T14:26:48.853Z,94625.38
2022-11-23T14:28:06.438Z,94624.78
2022-11-23T14:29:35.816Z,94638.81
2022-11-23T14:30:52.660Z,94635.00
2022-11-23T14:32:19.665Z,94627.28
2022-11-23T14:33:32.614Z,94620.50
2022-11-23T14:34:52.057Z,94610.94
2022-11-23T14:36:06.916Z,94623.34
2022-11-23T14:37:21.874Z,94623.41
2022-11-23T14:38:59.647Z,94618.63
2022-11-23T14:40:19.238Z,94616.84
2022-11-23T14:41:23.849Z,94616.19
2022-11-23T14:42:31.131Z,94614.72
2022-11-23T14:43:37.624Z,94616.06
2022-11-23T14:44:44.867Z,94610.75
2022-11-23T14:45:51.140Z,94616.06
2022-11-23T14:47:06.671Z,94612.06
2022-11-23T14:48:31.635Z,94608.19
2022-11-23T14:49:34.957Z,94605.19
2022-11-23T14:50:39.747Z,94607.81
2022-11-23T14:51:46.945Z,94614.03
2022-11-23T14:52:54.261Z,94613.38
2022-11-23T14:54:02.475Z,94616.53
2022-11-23T14:55:09.130Z,94617.13
2022-11-23T14:56:30.101Z,94624.19
2022-11-23T14:57:42.736Z,94626.88
2022-11-23T14:58:47.262Z,94636.09
2022-11-23T15:00:00.567Z,94645.47
2022-11-23T15:01:03.557Z,94641.31
2022-11-23T15:02:17.854Z,94645.63
2022-11-23T15:05:00.451Z,94651.72
2022-11-23T15:06:12.945Z,94655.09
2022-11-23T15:07:21.977Z,94662.84
2022-11-23T15:08:32.180Z,94664.69
2022-11-23T15:09:52.257Z,94660.78
2022-11-23T15:11:01.857Z,94662.56
2022-11-23T15:12:11.614Z,94663.81
2022-11-23T15:13:24.580Z,94658.47
2022-11-23T15:14:27.325Z,94654.06
2022-11-23T15:15:38.191Z,94661.31
2022-11-23T15:16:43.743Z,94650.94
2022-11-23T15:17:53.062Z,94655.53
2022-11-23T15:18:58.158Z,94655.19
2022-11-23T15:20:01.383Z,94644.59
2022-11-23T15:21:09.441Z,94652.53
2022-11-23T15:22:16.626Z,94650.69
2022-11-23T15:23:24.253Z,94651.44
2022-11-23T15:24:31.599Z,94660.38
2022-11-23T15:25:36.636Z,94653.19
2022-11-23T15:26:49.115Z,94657.69
2022-11-23T15:27:54.401Z,94658.06
2022-11-23T15:28:56.726Z,94667.06
2022-11-23T15:30:02.743Z,94664.03
2022-11-23T15:31:30.684Z,94667.69
2022-11-23T15:32:36.788Z,94661.31
2022-11-23T15:33:42.177Z,94662.81
2022-11-23T15:34:44.413Z,94661.88
2022-11-23T15:35:50.062Z,94670.34
2022-11-23T15:36:52.860Z,94664.00
2022-11-23T15:37:58.454Z,94665.19
2022-11-23T15:39:08.465Z,94664.25
2022-11-23T15:40:13.961Z,94665.53
2022-11-23T15:41:19.748Z,94672.50
2022-11-23T15:42:24.727Z,94674.44
2022-11-23T15:43:29.488Z,94660.63
2022-11-23T15:44:32.909Z,94669.94
2022-11-23T15:45:59.883Z,94667.91
2022-11-23T15:47:09.839Z,94663.66
2022-11-23T15:48:14.790Z,94665.00
2022-11-23T15:49:20.672Z,94660.56
2022-11-23T15:50:22.790Z,94667.81
2022-11-23T15:51:31.090Z,94676.34
2022-11-23T15:52:36.705Z,94665.75
2022-11-23T15:53:50.617Z,94662.16
2022-11-23T15:54:55.348Z,94667.22
2022-11-23T15:56:01.074Z,94667.94
2022-11-23T15:57:09.637Z,94660.03
2022-11-23T15:58:17.140Z,94670.03
2022-11-23T15:59:33.467Z,94659.47
2022-11-23T16:00:37.240Z,94667.66
2022-11-23T16:01:42.236Z,94666.91
2022-11-23T16:02:49.952Z,94668.19
2022-11-23T16:03:55.568Z,94664.78
2022-11-23T16:05:13.976Z,94667.06
2022-11-23T16:06:24.879Z,94667.53
2022-11-23T16:07:29.637Z,94666.00
2022-11-23T16:08:37.060Z,94657.41
2022-11-23T16:09:51.224Z,94675.38
2022-11-23T16:10:58.268Z,94658.72
2022-11-23T16:12:00.364Z,94665.81
2022-11-23T16:13:08.946Z,94663.91
2022-11-23T16:14:21.676Z,94661.34
2022-11-23T16:15:38.022Z,94665.13
2022-11-23T16:16:46.146Z,94669.81
2022-11-23T16:17:53.651Z,94667.66
2022-11-23T16:18:58.991Z,94661.50
2022-11-23T16:20:06.609Z,94671.91
2022-11-23T16:21:17.129Z,94671.47
2022-11-23T16:22:32.836Z,94662.53
2022-11-23T16:23:43.334Z,94673.91
2022-11-23T16:24:52.889Z,94668.94
2022-11-23T16:26:01.433Z,94671.28
2022-11-23T16:27:15.653Z,94669.78
2022-11-23T16:28:27.124Z,94672.63
2022-11-23T16:29:37.870Z,94675.22
2022-11-23T16:30:46.440Z,94674.69
2022-11-23T16:31:54.344Z,94684.25
2022-11-23T16:33:01.608Z,94687.56
2022-11-23T16:34:03.802Z,94681.41
2022-11-23T16:35:19.680Z,94684.59
2022-11-23T16:36:22.406Z,94686.69
2022-11-23T16:37:29.164Z,94686.25
2022-11-23T16:38:31.429Z,94678.63
2022-11-23T16:39:36.186Z,94674.34
2022-11-23T16:40:38.458Z,94685.94
2022-11-23T16:41:43.693Z,94683.00
2022-11-23T16:42:48.620Z,94685.03
2022-11-23T16:43:53.031Z,94686.41
2022-11-23T16:44:57.690Z,94689.56
2022-11-23T16:46:02.115Z,94694.53
2022-11-23T16:47:30.147Z,94688.13
2022-11-23T16:48:42.282Z,94689.09
2022-11-23T16:49:47.008Z,94689.03
2022-11-23T16:50:49.047Z,94690.31
2022-11-23T16:51:57.405Z,94689.75
2022-11-23T16:53:05.171Z,94688.91
2022-11-23T16:54:13.411Z,94697.06
2022-11-23T16:55:19.455Z,94689.59
2022-11-23T16:56:24.045Z,94697.38
2022-11-23T16:57:33.912Z,94693.06
2022-11-23T16:58:38.889Z,94696.75
2022-11-23T16:59:43.739Z,94697.41
2022-11-23T17:00:49.325Z,94699.22
2022-11-23T17:01:56.893Z,94701.72
2022-11-23T17:03:01.896Z,94695.44
2022-11-23T17:04:06.712Z,94701.16
2022-11-23T17:05:17.307Z,94701.72
2022-11-23T17:06:23.131Z,94696.91
2022-11-23T17:07:28.184Z,94694.06
2022-11-23T17:08:30.320Z,94694.59
2022-11-23T17:09:35.324Z,94697.91
2022-11-23T17:10:41.201Z,94697.56
2022-11-23T17:11:50.407Z,94703.19
2022-11-23T17:12:57.627Z,94697.06
2022-11-23T17:14:00.114Z,94704.59
2022-11-23T17:15:04.748Z,94712.16
2022-11-23T17:16:09.793Z,94717.28
2022-11-23T17:17:17.053Z,94718.78
2022-11-23T17:18:22.383Z,94722.09
2022-11-23T17:19:27.201Z,94724.53
2022-11-23T17:20:31.992Z,94730.56
2022-11-23T17:21:37.056Z,94739.03
2022-11-23T17:22:42.095Z,94738.88